createdAt,value
2019-03-25T00:00:57.598Z,4.37
2019-03-25T00:01:57.590Z,4.39
2019-03-25T00:02:57.597Z,4.40
2019-03-25T00:03:57.573Z,4.51
2019-03-25T00:04:57.556Z,4.47
2019-03-25T00:05:57.540Z,4.55
2019-03-25T00:06:58.457Z,4.43
2019-03-25T00:07:57.542Z,4.37
2019-03-25T00:09:04.894Z,4.46
2019-03-25T00:09:58.507Z,4.42
2019-03-25T00:10:57.485Z,4.50
2019-03-25T00:11:57.494Z,4.47
2019-03-25T00:12:57.477Z,4.46
2019-03-25T00:13:57.490Z,4.36
2019-03-25T00:14:57.467Z,4.34
2019-03-25T00:15:57.446Z,4.39
2019-03-25T00:16:57.417Z,4.36
2019-03-25T00:17:57.411Z,4.42
2019-03-25T00:18:57.431Z,4.32
2019-03-25T00:19:57.394Z,4.22
2019-03-25T00:20:57.378Z,4.21
2019-03-25T00:21:57.364Z,4.22
2019-03-25T00:22:57.356Z,4.19
2019-03-25T00:23:57.346Z,4.14
2019-03-25T00:24:57.357Z,4.22
2019-03-25T00:25:57.320Z,4.21
2019-03-25T00:26:57.309Z,4.19
2019-03-25T00:27:57.298Z,4.26
2019-03-25T00:28:57.298Z,4.22
2019-03-25T00:29:57.279Z,4.24
2019-03-25T00:30:57.297Z,4.33
2019-03-25T00:31:57.254Z,4.33
2019-03-25T00:32:57.238Z,4.25
2019-03-25T00:33:57.239Z,4.29
2019-03-25T00:34:57.222Z,4.34
2019-03-25T00:35:57.215Z,4.32
2019-03-25T00:36:57.209Z,4.22
2019-03-25T00:37:57.185Z,4.22
2019-03-25T00:38:57.176Z,4.22
2019-03-25T00:39:57.171Z,4.19
2019-03-25T00:40:57.167Z,4.04
2019-03-25T00:41:57.140Z,4.01
2019-03-25T00:42:57.127Z,3.98
2019-03-25T00:43:57.117Z,3.98
2019-03-25T00:44:57.102Z,3.96
2019-03-25T00:45:57.109Z,3.96
2019-03-25T00:46:57.093Z,3.98
2019-03-25T00:47:57.069Z,3.83
2019-03-25T00:48:57.063Z,3.89
2019-03-25T00:49:57.059Z,3.76
2019-03-25T00:50:57.037Z,3.85
2019-03-25T00:51:57.051Z,3.79
2019-03-25T00:52:57.023Z,3.76
2019-03-25T00:53:57.034Z,3.76
2019-03-25T00:54:56.995Z,3.71
2019-03-25T00:55:56.985Z,3.68
2019-03-25T00:56:56.971Z,3.67
2019-03-25T00:57:56.973Z,3.67
2019-03-25T00:58:56.961Z,3.64
2019-03-25T00:59:56.951Z,3.67
2019-03-25T01:00:56.934Z,3.53
2019-03-25T01:01:56.920Z,3.67
2019-03-25T01:02:56.943Z,3.78
2019-03-25T01:03:56.893Z,3.79
2019-03-25T01:04:56.878Z,3.71
2019-03-25T01:05:56.871Z,3.58
2019-03-25T01:06:56.866Z,3.54
2019-03-25T01:07:56.877Z,3.52
2019-03-25T01:08:56.869Z,3.43
2019-03-25T01:09:56.826Z,3.42
2019-03-25T01:10:56.818Z,3.30
2019-03-25T01:11:56.843Z,3.33
2019-03-25T01:12:56.839Z,3.25
2019-03-25T01:13:56.794Z,3.31
2019-03-25T01:14:56.782Z,3.27
2019-03-25T01:15:56.764Z,3.15
2019-03-25T01:16:56.751Z,3.15
2019-03-25T01:17:56.755Z,3.07
2019-03-25T01:18:56.735Z,3.09
2019-03-25T01:19:56.716Z,3.00
2019-03-25T01:20:56.712Z,2.98
2019-03-25T01:21:56.698Z,3.02
2019-03-25T01:22:56.732Z,3.03
2019-03-25T01:23:56.707Z,2.98
2019-03-25T01:25:01.758Z,2.82
2019-03-25T01:25:57.654Z,2.85
2019-03-25T01:26:56.638Z,2.79
2019-03-25T01:27:56.632Z,2.76
2019-03-25T01:28:56.616Z,2.59
2019-03-25T01:29:56.622Z,2.70
2019-03-25T01:30:56.589Z,2.69
2019-03-25T01:31:56.583Z,2.77
2019-03-25T01:32:56.575Z,2.69
2019-03-25T01:33:56.560Z,2.70
2019-03-25T01:34:56.584Z,2.63
2019-03-25T01:35:56.547Z,2.69
2019-03-25T01:36:56.535Z,2.66
2019-03-25T01:37:56.517Z,2.66
2019-03-25T01:38:56.503Z,2.64
2019-03-25T01:39:56.504Z,2.81
2019-03-25T01:40:56.500Z,2.82
2019-03-25T01:41:56.478Z,2.87
2019-03-25T01:42:56.470Z,3.03
2019-03-25T01:43:56.482Z,3.02
2019-03-25T01:44:56.439Z,3.09
2019-03-25T01:45:56.451Z,3.21
2019-03-25T01:46:56.416Z,3.15
2019-03-25T01:47:56.408Z,3.27
2019-03-25T01:48:56.396Z,3.31
2019-03-25T01:49:56.388Z,3.33
2019-03-25T01:50:56.410Z,3.39
2019-03-25T01:51:56.388Z,3.36
2019-03-25T01:52:56.372Z,3.52
2019-03-25T01:53:56.347Z,3.52
2019-03-25T01:54:56.330Z,3.52
2019-03-25T01:55:56.316Z,3.61
2019-03-25T01:56:56.344Z,3.70
2019-03-25T01:57:56.300Z,3.62
2019-03-25T01:58:56.289Z,3.75
2019-03-25T01:59:56.279Z,3.64
2019-03-25T02:00:56.283Z,3.76
2019-03-25T02:01:56.257Z,3.71
2019-03-25T02:02:56.257Z,3.78
2019-03-25T02:03:56.232Z,3.82
2019-03-25T02:04:56.223Z,3.88
2019-03-25T02:05:56.214Z,3.80
2019-03-25T02:06:56.208Z,3.78
2019-03-25T02:07:56.201Z,3.86
2019-03-25T02:08:56.180Z,3.89
2019-03-25T02:09:56.166Z,3.89
2019-03-25T02:10:56.168Z,3.76
2019-03-25T02:11:56.160Z,3.80
2019-03-25T02:12:56.205Z,3.85
2019-03-25T02:13:56.119Z,3.85
2019-03-25T02:14:56.120Z,3.89
2019-03-25T02:15:56.101Z,3.80
2019-03-25T02:16:56.103Z,3.85
2019-03-25T02:17:56.091Z,3.88
2019-03-25T02:18:56.061Z,3.88
2019-03-25T02:19:56.136Z,3.97
2019-03-25T02:20:56.050Z,3.97
2019-03-25T02:21:56.043Z,3.98
2019-03-25T02:22:56.216Z,4.08
2019-03-25T02:23:56.015Z,4.03
2019-03-25T02:24:56.045Z,4.04
2019-03-25T02:25:55.991Z,4.01
2019-03-25T02:26:56.001Z,4.01
2019-03-25T02:27:55.972Z,4.06
2019-03-25T02:28:55.957Z,4.14
2019-03-25T02:29:55.951Z,4.06
2019-03-25T02:30:55.985Z,4.00
2019-03-25T02:31:55.918Z,4.01
2019-03-25T02:32:55.910Z,4.01
2019-03-25T02:33:55.898Z,3.97
2019-03-25T02:34:55.898Z,4.12
2019-03-25T02:35:55.897Z,4.08
2019-03-25T02:36:55.864Z,4.15
2019-03-25T02:37:55.854Z,4.24
2019-03-25T02:38:55.868Z,4.24
2019-03-25T02:39:55.876Z,4.29
2019-03-25T02:40:55.859Z,4.36
2019-03-25T02:41:55.807Z,4.32
2019-03-25T02:42:55.807Z,4.32
2019-03-25T02:43:55.800Z,4.34
2019-03-25T02:44:55.778Z,4.34
2019-03-25T02:45:55.768Z,4.37
2019-03-25T02:46:55.780Z,4.36
2019-03-25T02:47:55.745Z,4.34
2019-03-25T02:48:55.729Z,4.37
2019-03-25T02:49:55.718Z,4.40
2019-03-25T02:50:55.710Z,4.40
2019-03-25T02:51:55.714Z,4.50
2019-03-25T02:52:55.683Z,4.46
2019-03-25T02:53:55.672Z,4.46
2019-03-25T02:54:55.657Z,4.47
2019-03-25T02:55:55.653Z,4.43
2019-03-25T02:56:55.648Z,4.39
2019-03-25T02:57:55.623Z,4.44
2019-03-25T02:58:55.615Z,4.43
2019-03-25T02:59:55.600Z,4.46
2019-03-25T03:00:55.602Z,4.36
2019-03-25T03:01:55.615Z,4.39
2019-03-25T03:02:55.571Z,4.36
2019-03-25T03:03:55.561Z,4.21
2019-03-25T03:04:55.547Z,4.22
2019-03-25T03:05:55.535Z,4.18
2019-03-25T03:06:55.522Z,4.12
2019-03-25T03:07:55.524Z,4.04
2019-03-25T03:08:55.513Z,3.97
2019-03-25T03:09:55.492Z,3.96
2019-03-25T03:10:55.476Z,3.90
2019-03-25T03:11:55.467Z,3.80
2019-03-25T03:12:55.483Z,3.83
2019-03-25T03:13:55.448Z,3.72
2019-03-25T03:14:55.433Z,3.68
2019-03-25T03:15:55.453Z,3.79
2019-03-25T03:16:55.414Z,3.65
2019-03-25T03:17:55.413Z,3.67
2019-03-25T03:18:55.420Z,3.65
2019-03-25T03:19:55.591Z,3.79
2019-03-25T03:20:55.414Z,3.76
2019-03-25T03:21:55.370Z,3.71
2019-03-25T03:22:55.411Z,3.67
2019-03-25T03:23:55.346Z,3.62
2019-03-25T03:24:55.342Z,3.70
2019-03-25T03:25:57.878Z,3.70
2019-03-25T03:26:55.315Z,3.68
2019-03-25T03:27:55.330Z,3.61
2019-03-25T03:28:55.287Z,3.60
2019-03-25T03:29:55.293Z,3.60
2019-03-25T03:30:55.285Z,3.57
2019-03-25T03:31:55.291Z,3.61
2019-03-25T03:32:55.235Z,3.61
2019-03-25T03:33:55.254Z,3.57
2019-03-25T03:34:55.233Z,3.57
2019-03-25T03:35:55.215Z,3.52
2019-03-25T03:36:55.187Z,3.47
2019-03-25T03:37:55.179Z,3.54
2019-03-25T03:38:55.181Z,3.49
2019-03-25T03:39:55.163Z,3.52
2019-03-25T03:40:55.165Z,3.39
2019-03-25T03:41:55.128Z,3.43
2019-03-25T03:42:55.132Z,3.39
2019-03-25T03:43:55.111Z,3.36
2019-03-25T03:44:55.104Z,3.39
2019-03-25T03:45:55.107Z,3.39
2019-03-25T03:46:55.089Z,3.33
2019-03-25T03:47:55.062Z,3.40
2019-03-25T03:48:55.065Z,3.36
2019-03-25T03:49:55.054Z,3.24
2019-03-25T03:50:55.072Z,3.28
2019-03-25T03:51:55.033Z,3.25
2019-03-25T03:52:55.019Z,3.21
2019-03-25T03:53:54.997Z,3.25
2019-03-25T03:54:54.985Z,3.25
2019-03-25T03:55:54.977Z,3.13
2019-03-25T03:56:54.980Z,3.15
2019-03-25T03:57:55.924Z,3.10
2019-03-25T03:58:55.919Z,3.24
2019-03-25T03:59:54.927Z,3.24
2019-03-25T04:00:54.925Z,3.15
2019-03-25T04:01:55.473Z,3.13
2019-03-25T04:02:54.902Z,3.12
2019-03-25T04:03:55.882Z,3.12
2019-03-25T04:04:56.473Z,3.28
2019-03-25T04:05:56.518Z,3.20
2019-03-25T04:06:59.405Z,3.23
2019-03-25T04:08:05.212Z,3.25
2019-03-25T04:08:59.032Z,3.12
2019-03-25T04:10:35.639Z,3.20
2019-03-25T04:11:00.919Z,3.25
2019-03-25T04:12:00.595Z,3.25
2019-03-25T04:13:19.870Z,3.34
2019-03-25T07:02:44.687Z,5.83
2019-03-25T07:03:44.616Z,6.14
2019-03-25T07:04:44.571Z,5.93
2019-03-25T07:05:44.621Z,5.82
2019-03-25T07:06:44.523Z,5.91
2019-03-25T07:07:44.516Z,6.26
2019-03-25T07:08:44.525Z,6.11
2019-03-25T07:18:02.583Z,6.22
2019-03-25T07:19:02.628Z,6.76
2019-03-25T07:20:02.429Z,7.55
2019-03-25T07:21:02.420Z,7.96
2019-03-25T07:22:02.419Z,8.47
2019-03-25T07:23:02.307Z,8.87
2019-03-25T07:24:02.359Z,8.91
2019-03-25T07:25:02.376Z,8.91
2019-03-25T07:39:26.847Z,5.91
2019-03-25T07:40:26.960Z,6.40
2019-03-25T07:41:26.740Z,6.73
2019-03-25T07:42:26.727Z,6.36
2019-03-25T07:43:26.698Z,6.61
2019-03-25T07:44:26.665Z,7.44
2019-03-25T07:49:00.173Z,7.84
2019-03-25T07:50:00.017Z,8.25
2019-03-25T07:50:59.988Z,8.66
2019-03-25T07:52:00.099Z,8.00
2019-03-25T07:52:59.960Z,8.93
2019-03-25T07:53:59.897Z,9.70
2019-03-25T07:54:59.868Z,9.67
2019-03-25T07:55:59.862Z,9.45
2019-03-25T07:56:59.882Z,8.63
2019-03-25T07:57:59.846Z,8.14
2019-03-25T07:58:59.809Z,7.69
2019-03-25T07:59:59.877Z,7.17
2019-03-25T08:00:59.811Z,7.07
2019-03-25T08:01:59.796Z,7.05
2019-03-25T08:02:59.795Z,7.07
2019-03-25T08:03:59.755Z,7.13
2019-03-25T08:04:59.770Z,7.20
2019-03-25T08:05:59.748Z,7.24
2019-03-25T08:06:59.745Z,8.14
2019-03-25T08:07:59.772Z,8.42
2019-03-25T08:09:04.036Z,7.97
2019-03-25T08:09:59.709Z,8.29
2019-03-25T08:11:07.363Z,8.76
2019-03-25T08:12:07.340Z,9.34
2019-03-25T08:13:07.459Z,9.39
2019-03-25T08:14:08.511Z,8.76
2019-03-25T08:15:07.314Z,8.28
2019-03-25T08:16:07.303Z,7.89
2019-03-25T08:16:59.711Z,7.60
2019-03-25T08:19:13.413Z,7.17
2019-03-25T08:20:21.026Z,6.97
2019-03-25T08:21:20.960Z,6.77
2019-03-25T08:22:20.979Z,6.87
2019-03-25T08:23:20.920Z,6.68
2019-03-25T08:24:23.268Z,6.63
2019-03-25T08:26:27.151Z,6.59
2019-03-25T08:27:27.100Z,6.62
2019-03-25T08:28:27.001Z,6.63
2019-03-25T08:29:27.046Z,6.76
2019-03-25T08:30:26.973Z,6.87
2019-03-25T08:31:26.956Z,6.98
2019-03-25T08:36:51.737Z,6.26
2019-03-25T08:37:51.645Z,6.28
2019-03-25T08:38:51.638Z,6.16
2019-03-25T08:39:51.723Z,6.03
2019-03-25T08:40:51.567Z,6.00
2019-03-25T08:41:51.589Z,5.98
2019-03-25T08:42:51.562Z,5.88
2019-03-25T08:44:01.427Z,5.75
2019-03-25T08:45:00.323Z,5.74
2019-03-25T08:45:59.204Z,5.70
2019-03-25T08:47:00.607Z,5.43
2019-03-25T08:47:59.115Z,5.32
2019-03-25T08:48:59.110Z,5.32
2019-03-25T08:50:01.636Z,5.32
2019-03-25T08:52:41.253Z,5.32
2019-03-25T08:55:16.178Z,4.98
2019-03-25T08:56:15.543Z,4.91
2019-03-25T08:57:15.739Z,4.83
2019-03-25T08:58:15.510Z,4.64
2019-03-25T08:59:25.434Z,4.75
2019-03-25T09:02:28.133Z,4.89
2019-03-25T09:03:28.136Z,4.88
2019-03-25T09:04:27.992Z,4.80
2019-03-25T09:05:27.995Z,4.55
2019-03-25T09:06:27.947Z,4.46
2019-03-25T09:07:27.934Z,4.36
2019-03-25T09:08:37.854Z,4.26
2019-03-25T09:09:28.095Z,4.08
2019-03-25T09:10:28.135Z,4.04
2019-03-25T09:11:28.148Z,4.06
2019-03-25T09:12:27.850Z,4.04
2019-03-25T09:13:27.943Z,4.12
2019-03-25T09:14:27.917Z,4.24
2019-03-25T09:15:27.859Z,4.51
2019-03-25T09:16:27.878Z,4.64
2019-03-25T09:28:59.476Z,6.29
2019-03-25T09:29:59.381Z,6.53
2019-03-25T09:30:59.294Z,6.61
2019-03-25T09:31:59.268Z,6.53
2019-03-25T09:32:59.200Z,6.35
2019-03-25T09:33:59.334Z,6.32
2019-03-25T09:50:44.125Z,6.29
2019-03-25T09:51:37.226Z,6.32
2019-03-25T09:52:38.709Z,6.25
2019-03-25T09:53:37.535Z,6.30
2019-03-25T09:54:37.149Z,6.10
2019-03-25T09:55:37.160Z,5.93
2019-03-25T09:56:37.301Z,5.98
2019-03-25T10:05:04.315Z,5.81
2019-03-25T10:06:04.362Z,5.82
2019-03-25T10:07:04.029Z,5.75
2019-03-25T10:08:04.076Z,5.74
2019-03-25T10:09:03.948Z,5.57
2019-03-25T10:10:03.937Z,5.53
2019-03-25T10:11:03.917Z,5.59
2019-03-25T10:19:21.536Z,6.13
2019-03-25T10:20:21.168Z,6.44
2019-03-25T10:21:20.959Z,6.77
2019-03-25T10:22:20.698Z,6.76
2019-03-25T10:23:20.672Z,6.90
2019-03-25T10:24:27.612Z,7.04
2019-03-25T10:25:22.860Z,7.02
2019-03-25T10:26:20.548Z,6.79
2019-03-25T10:27:20.563Z,6.62
2019-03-25T10:28:20.526Z,6.71
2019-03-25T10:29:20.524Z,6.53
2019-03-25T10:30:20.508Z,6.47
2019-03-25T10:31:20.525Z,6.47
2019-03-25T10:32:20.590Z,6.62
2019-03-25T10:33:20.474Z,6.48
2019-03-25T10:34:20.457Z,6.47
2019-03-25T10:35:20.447Z,6.29
2019-03-25T10:36:20.443Z,6.11
2019-03-25T10:37:20.456Z,5.96
2019-03-25T10:38:20.413Z,5.88
2019-03-25T10:39:20.397Z,5.83
2019-03-25T10:40:20.394Z,5.89
2019-03-25T10:41:20.501Z,5.93
2019-03-25T10:42:20.399Z,6.00
2019-03-25T10:43:20.362Z,5.86
2019-03-25T10:44:20.437Z,5.78
2019-03-25T10:45:20.326Z,5.78
2019-03-25T10:46:20.371Z,5.82
2019-03-25T10:47:20.425Z,5.73
2019-03-25T10:48:20.343Z,5.66
2019-03-25T10:49:20.349Z,5.71
2019-03-25T10:50:20.283Z,5.78
2019-03-25T10:51:20.283Z,5.85
2019-03-25T10:52:20.262Z,6.13
2019-03-25T10:53:20.261Z,6.11
2019-03-25T10:54:20.292Z,5.98
2019-03-25T10:55:20.528Z,5.96
2019-03-25T10:56:20.270Z,6.03
2019-03-25T10:57:20.671Z,5.95
2019-03-25T11:10:54.415Z,8.17
2019-03-25T11:11:54.362Z,7.90
2019-03-25T11:12:54.095Z,7.44
2019-03-25T11:13:54.485Z,7.22
2019-03-25T11:14:54.336Z,7.01
2019-03-25T11:15:53.989Z,6.63
2019-03-25T11:17:21.292Z,6.32
2019-03-25T11:18:00.427Z,6.11
2019-03-25T11:26:21.345Z,5.28
2019-03-25T11:27:21.287Z,5.27
2019-03-25T11:28:21.189Z,5.23
2019-03-25T11:29:21.250Z,5.19
2019-03-25T11:30:21.146Z,5.13
2019-03-25T11:31:21.111Z,5.13
2019-03-25T11:32:21.139Z,5.14
2019-03-25T11:33:21.093Z,5.09
2019-03-25T11:34:21.081Z,5.14
2019-03-25T11:35:21.065Z,5.12
2019-03-25T11:36:21.043Z,5.22
2019-03-25T11:37:21.047Z,5.17
2019-03-25T11:38:21.098Z,5.30
2019-03-25T11:39:21.012Z,5.40
2019-03-25T11:40:21.007Z,5.46
2019-03-25T11:41:20.990Z,5.50
2019-03-25T11:42:20.990Z,5.59
2019-03-25T11:43:20.995Z,5.56
2019-03-25T11:44:20.967Z,5.66
2019-03-25T11:45:20.948Z,5.85
2019-03-25T11:46:20.960Z,6.10
2019-03-25T11:47:20.921Z,6.33
2019-03-25T11:48:20.912Z,6.51
2019-03-25T11:49:20.909Z,6.59
2019-03-25T11:50:20.890Z,6.68
2019-03-25T11:51:20.917Z,6.66
2019-03-25T11:52:20.869Z,6.66
2019-03-25T11:53:20.853Z,6.81
2019-03-25T11:54:20.846Z,6.89
2019-03-25T11:55:20.832Z,6.69
2019-03-25T11:56:20.851Z,6.50
2019-03-25T11:57:20.820Z,6.47
2019-03-25T11:58:20.801Z,6.56
2019-03-25T11:59:20.812Z,6.47
2019-03-25T12:00:20.781Z,6.29
2019-03-25T12:01:20.769Z,6.22
2019-03-25T12:02:20.776Z,6.13
2019-03-25T12:03:20.755Z,5.91
2019-03-25T12:04:20.759Z,5.92
2019-03-25T12:05:20.728Z,5.88
2019-03-25T12:06:20.713Z,5.89
2019-03-25T12:07:20.760Z,5.78
2019-03-25T12:08:20.690Z,5.83
2019-03-25T12:09:20.677Z,5.78
2019-03-25T12:10:20.754Z,5.77
2019-03-25T12:11:20.651Z,5.71
2019-03-25T12:12:20.659Z,5.64
2019-03-25T12:13:20.641Z,5.70
2019-03-25T12:14:20.635Z,5.78
2019-03-25T12:15:20.616Z,5.86
2019-03-25T12:16:20.623Z,6.09
2019-03-25T12:17:20.592Z,6.30
2019-03-25T12:18:20.619Z,6.33
2019-03-25T12:19:20.564Z,6.29
2019-03-25T12:20:20.602Z,6.28
2019-03-25T12:21:20.542Z,6.43
2019-03-25T12:22:20.560Z,6.43
2019-03-25T12:23:26.390Z,6.62
2019-03-25T12:24:21.579Z,6.61
2019-03-25T12:25:20.523Z,6.66
2019-03-25T12:26:20.546Z,6.87
2019-03-25T12:27:20.530Z,6.89
2019-03-25T12:28:20.882Z,6.94
2019-03-25T12:29:29.676Z,7.05
2019-03-25T12:30:21.442Z,6.87
2019-03-25T12:31:20.451Z,6.81
2019-03-25T12:32:20.459Z,6.72
2019-03-25T12:33:20.485Z,6.94
2019-03-25T12:34:20.494Z,6.77
2019-03-25T12:35:20.432Z,6.89
2019-03-25T12:36:20.404Z,6.95
2019-03-25T12:37:20.360Z,6.80
2019-03-25T12:38:20.381Z,6.94
2019-03-25T12:39:20.704Z,6.90
2019-03-25T12:40:20.328Z,6.98
2019-03-25T12:41:20.315Z,7.20
2019-03-25T12:42:20.393Z,7.32
2019-03-25T12:43:20.412Z,7.41
2019-03-25T12:44:20.422Z,7.44
2019-03-25T12:45:20.346Z,7.53
2019-03-25T12:46:20.364Z,7.67
2019-03-25T12:47:20.365Z,7.89
2019-03-25T12:48:20.234Z,7.84
2019-03-25T12:49:20.228Z,7.87
2019-03-25T12:50:20.332Z,7.81
2019-03-25T12:51:20.267Z,7.49
2019-03-25T12:52:20.232Z,7.58
2019-03-25T12:53:20.224Z,7.42
2019-03-25T12:54:20.233Z,7.50
2019-03-25T12:55:20.176Z,7.42
2019-03-25T12:56:20.148Z,7.35
2019-03-25T12:57:20.214Z,7.56
2019-03-25T12:58:20.338Z,7.67
2019-03-25T12:59:20.158Z,7.38
2019-03-25T13:00:20.201Z,7.42
2019-03-25T13:01:20.092Z,7.40
2019-03-25T13:02:20.248Z,7.44
2019-03-25T13:03:21.505Z,7.32
2019-03-25T13:04:20.115Z,7.34
2019-03-25T13:05:20.119Z,7.19
2019-03-25T13:06:20.346Z,7.29
2019-03-25T13:07:20.053Z,7.16
2019-03-25T13:08:20.248Z,7.07
2019-03-25T13:09:20.010Z,7.20
2019-03-25T13:10:20.027Z,7.29
2019-03-25T13:11:20.058Z,7.32
2019-03-25T13:12:19.975Z,7.34
2019-03-25T13:13:19.967Z,7.47
2019-03-25T13:14:19.981Z,7.31
2019-03-25T13:15:20.084Z,7.22
2019-03-25T13:16:20.001Z,7.35
2019-03-25T13:17:19.901Z,7.45
2019-03-25T13:18:19.940Z,7.58
2019-03-25T13:19:19.945Z,7.56
2019-03-25T13:20:19.911Z,7.50
2019-03-25T13:21:19.873Z,7.37
2019-03-25T13:22:19.904Z,7.47
2019-03-25T13:23:20.012Z,7.63
2019-03-25T13:24:19.883Z,7.66
2019-03-25T13:25:19.883Z,7.50
2019-03-25T13:26:19.874Z,7.42
2019-03-25T13:27:19.866Z,7.42
2019-03-25T13:28:19.844Z,7.59
2019-03-25T13:29:19.816Z,7.69
2019-03-25T13:30:19.981Z,7.67
2019-03-25T13:31:19.845Z,7.81
2019-03-25T13:32:19.830Z,7.97
2019-03-25T13:33:19.773Z,8.04
2019-03-25T13:34:19.741Z,8.08
2019-03-25T13:35:19.825Z,8.08
2019-03-25T13:36:19.735Z,8.10
2019-03-25T13:37:19.868Z,8.07
2019-03-25T13:38:19.820Z,7.81
2019-03-25T13:39:19.692Z,7.82
2019-03-25T13:40:19.835Z,7.84
2019-03-25T13:41:19.723Z,7.74
2019-03-25T13:42:19.767Z,7.85
2019-03-25T13:43:19.624Z,7.59
2019-03-25T13:44:19.659Z,7.67
2019-03-25T13:45:19.646Z,7.44
2019-03-25T13:46:19.699Z,7.37
2019-03-25T13:47:19.806Z,7.24
2019-03-25T13:48:19.567Z,7.15
2019-03-25T13:49:19.606Z,7.13
2019-03-25T13:50:20.231Z,7.15
2019-03-25T13:51:19.541Z,6.99
2019-03-25T13:52:19.672Z,6.90
2019-03-25T13:53:19.506Z,6.98
2019-03-25T13:54:19.856Z,6.95
2019-03-25T13:55:19.514Z,6.94
2019-03-25T13:56:19.534Z,6.98
2019-03-25T13:57:21.453Z,7.05
2019-03-25T13:58:19.671Z,7.13
2019-03-25T13:59:19.461Z,7.23
2019-03-25T14:00:19.465Z,7.35
2019-03-25T14:01:52.624Z,7.56
2019-03-25T14:02:20.791Z,7.63
2019-03-25T14:03:50.153Z,7.66
2019-03-25T14:04:19.388Z,7.62
2019-03-25T14:05:19.373Z,7.52
2019-03-25T14:06:19.381Z,7.42
2019-03-25T14:07:19.511Z,7.35
2019-03-25T14:08:19.373Z,7.17
2019-03-25T14:09:19.365Z,7.20
2019-03-25T14:10:19.324Z,7.08
2019-03-25T14:11:19.296Z,7.13
2019-03-25T14:12:19.456Z,7.12
2019-03-25T14:13:19.284Z,7.24
2019-03-25T14:14:19.292Z,7.37
2019-03-25T14:15:19.250Z,7.40
2019-03-25T14:16:19.266Z,7.53
2019-03-25T14:17:19.239Z,7.47
2019-03-25T14:18:19.232Z,7.47
2019-03-25T14:19:19.246Z,7.49
2019-03-25T14:20:19.202Z,7.37
2019-03-25T14:21:19.207Z,7.35
2019-03-25T14:22:19.213Z,7.16
2019-03-25T14:23:19.167Z,7.12
2019-03-25T14:24:19.191Z,6.91
2019-03-25T14:25:19.134Z,6.98
2019-03-25T14:26:19.125Z,6.94
2019-03-25T14:27:19.117Z,6.90
2019-03-25T14:28:19.102Z,6.79
2019-03-25T14:29:19.106Z,6.66
2019-03-25T14:30:19.125Z,6.76
2019-03-25T14:31:19.069Z,6.61
2019-03-25T14:32:19.072Z,6.63
2019-03-25T14:33:19.050Z,6.54
2019-03-25T14:34:19.066Z,6.48
2019-03-25T14:35:19.028Z,6.46
2019-03-25T14:36:19.059Z,6.41
2019-03-25T14:37:19.009Z,6.40
2019-03-25T14:38:19.028Z,6.33
2019-03-25T14:39:18.983Z,6.28
2019-03-25T14:40:18.982Z,6.33
2019-03-25T14:41:18.957Z,6.32
2019-03-25T14:42:18.964Z,6.33
2019-03-25T14:43:18.943Z,6.26
2019-03-25T14:44:18.931Z,6.26
2019-03-25T14:45:26.393Z,6.11
2019-03-25T14:46:19.921Z,6.16
2019-03-25T14:47:18.896Z,6.18
2019-03-25T14:48:18.911Z,6.16
2019-03-25T14:49:18.876Z,6.28
2019-03-25T14:50:18.853Z,6.33
2019-03-25T14:51:18.860Z,6.22
2019-03-25T14:52:18.835Z,6.29
2019-03-25T14:53:18.843Z,6.33
2019-03-25T14:54:18.823Z,6.44
2019-03-25T14:55:18.816Z,6.35
2019-03-25T14:56:18.784Z,6.51
2019-03-25T14:57:18.816Z,6.44
2019-03-25T14:58:18.781Z,6.53
2019-03-25T14:59:18.764Z,6.58
2019-03-25T15:00:25.068Z,6.68
2019-03-25T15:01:19.738Z,6.65
2019-03-25T15:02:18.742Z,6.72
2019-03-25T15:03:18.748Z,6.81
2019-03-25T15:04:18.718Z,6.94
2019-03-25T15:05:18.701Z,7.05
2019-03-25T15:06:18.721Z,7.23
2019-03-25T15:07:18.667Z,7.42
2019-03-25T15:08:18.657Z,7.78
2019-03-25T15:09:18.706Z,7.77
2019-03-25T15:10:18.635Z,7.92
2019-03-25T15:11:26.283Z,7.87
2019-03-25T15:12:18.702Z,7.92
2019-03-25T15:13:18.718Z,7.69
2019-03-25T15:14:18.666Z,7.66
2019-03-25T15:15:18.729Z,7.59
2019-03-25T15:16:18.604Z,7.34
2019-03-25T15:17:18.559Z,7.23
2019-03-25T15:18:18.546Z,7.15
2019-03-25T15:19:18.537Z,7.16
2019-03-25T15:20:18.532Z,7.02
2019-03-25T15:21:18.531Z,7.02
2019-03-25T15:22:18.506Z,6.99
2019-03-25T15:23:18.509Z,6.90
2019-03-25T15:24:18.530Z,6.94
2019-03-25T15:25:18.484Z,6.86
2019-03-25T15:26:18.455Z,6.79
2019-03-25T15:27:18.469Z,6.79
2019-03-25T15:28:18.435Z,6.79
2019-03-25T15:29:18.430Z,6.86
2019-03-25T15:30:18.482Z,6.91
2019-03-25T15:31:18.417Z,6.76
2019-03-25T15:32:18.737Z,6.87
2019-03-25T15:33:18.421Z,6.76
2019-03-25T15:34:18.376Z,6.61
2019-03-25T15:35:18.361Z,6.69
2019-03-25T15:36:18.403Z,6.61
2019-03-25T15:37:18.327Z,6.66
2019-03-25T15:38:18.315Z,6.76
2019-03-25T15:39:18.318Z,6.66
2019-03-25T15:40:18.316Z,6.68
2019-03-25T15:41:18.292Z,6.71
2019-03-25T15:42:18.302Z,6.72
2019-03-25T15:43:18.280Z,6.61
2019-03-25T15:44:18.246Z,6.71
2019-03-25T15:45:18.248Z,6.71
2019-03-25T15:46:18.233Z,6.66
2019-03-25T15:47:18.276Z,6.73
2019-03-25T15:48:18.295Z,6.69
2019-03-25T15:49:18.250Z,6.68
2019-03-25T15:50:18.210Z,6.71
2019-03-25T15:51:18.206Z,6.83
2019-03-25T15:52:18.174Z,6.80
2019-03-25T15:53:18.166Z,6.77
2019-03-25T15:54:18.155Z,6.71
2019-03-25T15:55:18.129Z,6.84
2019-03-25T15:56:18.140Z,6.83
2019-03-25T15:57:18.119Z,6.76
2019-03-25T15:58:25.963Z,6.73
2019-03-25T15:59:19.140Z,6.71
2019-03-25T16:00:18.070Z,6.68
2019-03-25T16:01:18.073Z,6.61
2019-03-25T16:02:18.048Z,6.68
2019-03-25T16:03:18.053Z,6.61
2019-03-25T16:04:18.035Z,6.62
2019-03-25T16:05:18.097Z,6.63
2019-03-25T16:06:18.006Z,6.62
2019-03-25T16:07:18.066Z,6.58
2019-03-25T16:08:17.994Z,6.65
2019-03-25T16:09:17.971Z,6.63
2019-03-25T16:10:17.978Z,6.59
2019-03-25T16:11:17.947Z,6.63
2019-03-25T16:12:17.937Z,6.61
2019-03-25T16:13:18.033Z,6.63
2019-03-25T16:14:17.923Z,6.63
2019-03-25T16:15:18.023Z,6.63
2019-03-25T16:16:17.896Z,6.56
2019-03-25T16:17:17.879Z,6.51
2019-03-25T16:18:17.939Z,6.51
2019-03-25T16:19:17.858Z,6.53
2019-03-25T16:20:17.854Z,6.51
2019-03-25T16:21:17.902Z,6.43
2019-03-25T16:22:17.837Z,6.44
2019-03-25T16:23:17.840Z,6.40
2019-03-25T16:24:17.807Z,6.35
2019-03-25T16:25:17.812Z,6.30
2019-03-25T16:26:17.794Z,6.28
2019-03-25T16:27:17.830Z,6.28
2019-03-25T16:28:17.770Z,6.11
2019-03-25T16:29:18.131Z,6.09
2019-03-25T16:30:17.744Z,6.13
2019-03-25T16:31:17.761Z,6.07
2019-03-25T16:32:17.719Z,5.98
2019-03-25T16:33:18.259Z,6.00
2019-03-25T16:34:17.710Z,6.00
2019-03-25T16:35:17.705Z,5.93
2019-03-25T16:36:17.687Z,5.93
2019-03-25T16:37:17.671Z,5.95
2019-03-25T16:38:17.774Z,5.98
2019-03-25T16:39:17.684Z,5.95
2019-03-25T16:40:18.948Z,6.00
2019-03-25T16:41:17.808Z,5.98
2019-03-25T16:42:17.933Z,5.96
2019-03-25T16:43:17.725Z,5.85
2019-03-25T16:44:17.654Z,5.88
2019-03-25T16:45:17.637Z,5.81
2019-03-25T16:46:17.721Z,5.89
2019-03-25T16:47:17.785Z,5.75
2019-03-25T16:48:17.596Z,5.70
2019-03-25T16:49:17.629Z,5.70
2019-03-25T16:50:17.551Z,5.66
2019-03-25T16:51:17.569Z,5.68
2019-03-25T16:52:17.613Z,5.67
2019-03-25T16:53:17.551Z,5.60
2019-03-25T16:54:17.486Z,5.68
2019-03-25T16:55:17.453Z,5.57
2019-03-25T16:56:17.496Z,5.56
2019-03-25T16:57:17.463Z,5.55
2019-03-25T16:58:17.434Z,5.56
2019-03-25T16:59:17.464Z,5.50
2019-03-25T17:00:26.945Z,5.45
2019-03-25T17:01:18.387Z,5.43
2019-03-25T17:02:17.523Z,5.53
2019-03-25T17:03:17.360Z,5.59
2019-03-25T17:04:17.380Z,5.59
2019-03-25T17:05:17.346Z,5.60
2019-03-25T17:06:17.348Z,5.67
2019-03-25T17:08:39.301Z,5.75
2019-03-25T17:09:39.329Z,5.74
2019-03-25T17:10:39.160Z,5.78
2019-03-25T17:11:39.073Z,5.68
2019-03-25T17:12:39.089Z,5.73
2019-03-25T17:15:06.268Z,5.63
2019-03-25T17:16:06.208Z,5.50
2019-03-25T17:17:06.149Z,5.43
2019-03-25T17:18:06.022Z,5.25
2019-03-25T17:19:05.998Z,5.23
2019-03-25T17:20:06.061Z,5.19
2019-03-25T17:21:06.051Z,5.14
2019-03-25T17:22:05.963Z,5.12
2019-03-25T17:23:05.963Z,5.10
2019-03-25T17:24:05.933Z,5.09
2019-03-25T17:25:05.922Z,4.98
2019-03-25T17:26:05.968Z,4.98
2019-03-25T17:27:34.586Z,4.98
2019-03-25T19:00:38.185Z,5.17
2019-03-25T19:01:58.738Z,5.17
2019-03-25T19:02:38.720Z,5.27
2019-03-25T19:03:42.072Z,5.30
2019-03-25T19:04:53.341Z,5.19
2019-03-25T19:05:35.855Z,5.22
2019-03-25T19:06:40.429Z,5.17
2019-03-25T19:07:37.224Z,5.22
2019-03-25T19:08:41.897Z,5.25
2019-03-25T19:10:05.046Z,5.30
2019-03-25T19:10:38.040Z,5.32
2019-03-25T19:49:17.617Z,5.31
2019-03-25T19:50:27.809Z,5.34
2019-03-25T19:51:15.081Z,5.28
2019-03-25T20:10:06.386Z,4.96
2019-03-25T20:11:03.790Z,4.94
2019-03-25T20:12:08.750Z,4.91
2019-03-25T20:30:01.842Z,5.05
2019-03-25T20:30:59.931Z,5.05
2019-03-25T20:32:02.085Z,4.96
2019-03-25T20:33:23.128Z,5.04
2019-03-25T20:34:10.356Z,5.14
2019-03-25T20:36:02.086Z,4.99